createdAt,value
2019-03-23T00:00:13.924Z,101173.58
2019-03-23T00:02:43.102Z,101173.20
2019-03-23T00:05:13.929Z,101170.86
2019-03-23T00:07:43.230Z,101166.41
2019-03-23T00:10:12.523Z,101160.33
2019-03-23T00:12:41.724Z,101154.53
2019-03-23T00:15:11.692Z,101149.55
2019-03-23T00:17:40.871Z,101144.70
2019-03-23T00:20:10.057Z,101141.13
2019-03-23T00:22:39.257Z,101137.88
2019-03-23T00:25:08.434Z,101141.80
2019-03-23T00:27:37.645Z,101133.65
2019-03-23T00:30:12.737Z,101132.91
2019-03-23T00:32:41.975Z,101131.55
2019-03-23T00:35:11.300Z,101128.59
2019-03-23T00:37:40.555Z,101127.02
2019-03-23T00:40:10.156Z,101122.84
2019-03-23T00:42:39.346Z,101118.28
2019-03-23T00:45:09.255Z,101117.53
2019-03-23T00:47:38.495Z,101109.60
2019-03-23T00:50:08.519Z,101111.36
2019-03-23T00:52:37.704Z,101111.00
2019-03-23T00:55:07.742Z,101110.30
2019-03-23T00:57:36.995Z,101107.00
2019-03-23T01:00:08.513Z,101097.09
2019-03-23T01:02:37.767Z,101101.66
2019-03-23T01:05:07.755Z,101099.07
2019-03-23T01:07:36.996Z,101102.86
2019-03-23T01:10:08.400Z,101097.92
2019-03-23T01:12:37.594Z,101099.03
2019-03-23T01:15:09.023Z,101099.61
2019-03-23T01:17:38.250Z,101097.22
2019-03-23T01:20:09.686Z,101096.81
2019-03-23T01:22:39.010Z,101101.50
2019-03-23T01:25:09.687Z,101106.55
2019-03-23T01:27:38.872Z,101113.83
2019-03-23T01:30:11.497Z,101105.73
2019-03-23T01:32:40.717Z,101107.95
2019-03-23T01:35:09.984Z,101109.30
2019-03-23T01:37:39.153Z,101103.62
2019-03-23T01:40:08.623Z,101103.34
2019-03-23T01:42:37.809Z,101107.41
2019-03-23T01:45:09.743Z,101106.05
2019-03-23T01:47:39.015Z,101102.39
2019-03-23T01:50:09.030Z,101101.23
2019-03-23T01:52:38.228Z,101109.09
2019-03-23T01:55:07.938Z,101110.94
2019-03-23T01:57:37.146Z,101112.29
2019-03-23T02:00:09.285Z,101102.80
2019-03-23T02:02:38.543Z,101108.63
2019-03-23T02:05:08.048Z,101105.20
2019-03-23T02:07:37.278Z,101101.78
2019-03-23T02:10:07.699Z,101101.61
2019-03-23T02:12:36.877Z,101103.66
2019-03-23T02:15:07.792Z,101103.09
2019-03-23T02:17:37.014Z,101097.92
2019-03-23T02:20:09.177Z,101098.20
2019-03-23T02:22:38.692Z,101098.95
2019-03-23T02:25:08.251Z,101092.17
2019-03-23T02:27:37.434Z,101092.66
2019-03-23T02:30:09.619Z,101083.07
2019-03-23T02:32:38.840Z,101077.71
2019-03-23T02:35:08.432Z,101080.51
2019-03-23T02:37:37.698Z,101081.00
2019-03-23T02:40:08.389Z,101079.53
2019-03-23T02:42:37.600Z,101075.63
2019-03-23T02:45:09.195Z,101069.98
2019-03-23T02:47:40.067Z,101065.31
2019-03-23T02:50:10.241Z,101068.31
2019-03-23T02:52:39.466Z,101064.34
2019-03-23T02:55:09.692Z,101060.39
2019-03-23T02:57:39.112Z,101057.56
2019-03-23T03:00:10.871Z,101050.27
2019-03-23T03:02:40.052Z,101045.05
2019-03-23T03:05:09.373Z,101049.28
2019-03-23T03:07:42.421Z,101046.81
2019-03-23T03:10:11.100Z,101054.82
2019-03-23T03:12:40.328Z,101054.16
2019-03-23T03:15:10.065Z,101058.83
2019-03-23T03:17:39.262Z,101059.63
2019-03-23T03:20:09.717Z,101055.48
2019-03-23T03:22:38.906Z,101049.77
2019-03-23T03:25:08.657Z,101058.39
2019-03-23T03:27:37.883Z,101050.37
2019-03-23T03:30:10.031Z,101046.40
2019-03-23T03:32:39.199Z,101044.30
2019-03-23T03:35:08.505Z,101039.08
2019-03-23T03:37:37.680Z,101044.67
2019-03-23T03:40:08.609Z,101051.56
2019-03-23T03:42:37.929Z,101050.01
2019-03-23T03:45:07.844Z,101054.44
2019-03-23T03:47:37.032Z,101063.81
2019-03-23T03:50:07.362Z,101064.80
2019-03-23T03:52:36.648Z,101063.06
2019-03-23T03:55:06.695Z,101069.17
2019-03-23T03:57:35.897Z,101070.78
2019-03-23T04:00:08.686Z,101073.12
2019-03-23T04:02:38.437Z,101079.14
2019-03-23T04:05:07.630Z,101085.54
2019-03-23T04:07:36.824Z,101094.16
2019-03-23T04:10:08.162Z,101095.82
2019-03-23T04:12:37.465Z,101088.02
2019-03-23T04:15:07.961Z,101084.75
2019-03-23T04:17:37.136Z,101075.00
2019-03-23T04:20:06.839Z,101077.70
2019-03-23T04:22:36.034Z,101068.58
2019-03-23T04:25:09.523Z,101065.55
2019-03-23T04:27:38.965Z,101068.16
2019-03-23T04:30:10.357Z,101070.31
2019-03-23T04:32:39.714Z,101067.80
2019-03-23T04:35:09.033Z,101076.27
2019-03-23T04:37:38.311Z,101073.31
2019-03-23T04:40:12.052Z,101068.76
2019-03-23T04:42:41.386Z,101066.27
2019-03-23T04:45:11.052Z,101071.26
2019-03-23T04:47:40.364Z,101068.73
2019-03-23T04:50:10.853Z,101072.75
2019-03-23T04:52:40.212Z,101067.37
2019-03-23T04:55:12.001Z,101065.11
2019-03-23T04:57:41.264Z,101069.52
2019-03-23T05:00:13.183Z,101066.56
2019-03-23T05:02:42.584Z,101073.58
2019-03-23T05:05:11.965Z,101075.87
2019-03-23T05:07:41.362Z,101080.36
2019-03-23T05:10:12.086Z,101089.62
2019-03-23T05:12:41.297Z,101103.82
2019-03-23T05:15:10.693Z,101099.88
2019-03-23T05:17:39.964Z,101089.47
2019-03-23T05:20:10.758Z,101087.92
2019-03-23T05:22:40.192Z,101080.22
2019-03-23T05:25:12.668Z,101082.80
2019-03-23T05:27:41.916Z,101085.11
2019-03-23T05:30:11.192Z,101086.93
2019-03-23T05:32:40.465Z,101089.34
2019-03-23T05:35:09.848Z,101083.73
2019-03-23T05:37:39.188Z,101078.77
2019-03-23T05:40:08.536Z,101075.39
2019-03-23T05:42:37.907Z,101078.14
2019-03-23T05:45:07.095Z,101073.03
2019-03-23T05:47:36.357Z,101073.62
2019-03-23T05:50:07.240Z,101075.59
2019-03-23T05:52:36.493Z,101070.39
2019-03-23T05:55:06.327Z,101069.41
2019-03-23T05:57:35.745Z,101063.16
2019-03-23T06:00:07.499Z,101062.36
2019-03-23T06:02:36.773Z,101065.95
2019-03-23T06:05:07.147Z,101069.09
2019-03-23T06:07:36.486Z,101064.83
2019-03-23T06:10:06.758Z,101065.64
2019-03-23T06:12:36.148Z,101055.52
2019-03-23T06:15:05.995Z,101059.84
2019-03-23T06:17:35.533Z,101056.56
2019-03-23T06:20:06.525Z,101057.66
2019-03-23T06:22:36.004Z,101056.97
2019-03-23T06:25:08.129Z,101056.89
2019-03-23T06:27:36.902Z,101054.48
2019-03-23T06:30:09.021Z,101050.37
2019-03-23T06:32:37.606Z,101050.02
2019-03-23T06:35:07.785Z,101054.34
2019-03-23T06:37:37.219Z,101058.70
2019-03-23T06:40:11.017Z,101062.97
2019-03-23T06:42:40.295Z,101051.63
2019-03-23T06:45:10.578Z,101060.02
2019-03-23T06:47:39.975Z,101054.25
2019-03-23T06:50:12.673Z,101054.63
2019-03-23T06:52:42.014Z,101051.64
2019-03-23T06:55:11.821Z,101060.72
2019-03-23T06:57:41.102Z,101055.58
2019-03-23T07:00:13.109Z,101058.88
2019-03-23T07:02:42.399Z,101046.70
2019-03-23T07:05:11.819Z,101052.45
2019-03-23T07:07:41.205Z,101044.89
2019-03-23T07:10:12.297Z,101049.27
2019-03-23T07:12:41.593Z,101050.18
2019-03-23T07:15:19.920Z,101058.67
2019-03-23T07:17:42.993Z,101046.74
2019-03-23T07:20:14.253Z,101043.89
2019-03-23T07:22:44.179Z,101049.06
2019-03-23T07:25:13.572Z,101048.05
2019-03-23T07:27:42.903Z,101048.28
2019-03-23T07:30:17.474Z,101045.11
2019-03-23T07:32:46.719Z,101052.16
2019-03-23T07:35:16.099Z,101043.73
2019-03-23T07:37:45.377Z,101050.82
2019-03-23T07:40:14.624Z,101045.23
2019-03-23T07:42:44.128Z,101048.46
2019-03-23T07:45:14.975Z,101043.97
2019-03-23T07:47:44.287Z,101043.69
2019-03-23T07:50:14.472Z,101033.89
2019-03-23T07:52:44.869Z,101043.18
2019-03-23T07:55:16.123Z,101033.77
2019-03-23T07:57:45.418Z,101031.28
2019-03-23T08:00:20.832Z,101035.56
2019-03-23T08:02:50.935Z,101037.49
2019-03-23T08:05:21.631Z,101022.98
2019-03-23T08:07:51.140Z,101029.25
2019-03-23T08:10:31.063Z,101023.47
2019-03-23T08:13:00.317Z,101012.02
2019-03-23T08:15:30.062Z,101014.19
2019-03-23T08:17:59.314Z,101017.83
2019-03-23T08:20:28.592Z,101013.88
2019-03-23T08:22:57.765Z,101004.00
2019-03-23T08:25:27.125Z,100999.30
2019-03-23T08:27:56.493Z,100990.63
2019-03-23T08:30:25.676Z,100993.30
2019-03-23T08:32:55.176Z,100989.86
2019-03-23T08:35:24.446Z,100976.39
2019-03-23T08:37:53.766Z,100970.27
2019-03-23T08:40:23.236Z,100971.06
2019-03-23T08:42:52.562Z,100956.86
2019-03-23T08:45:21.937Z,100953.05
2019-03-23T08:47:51.200Z,100959.39
2019-03-23T08:50:20.483Z,100953.88
2019-03-23T08:52:49.847Z,100948.73
2019-03-23T08:55:19.298Z,100956.41
2019-03-23T08:57:48.557Z,100956.41
2019-03-23T09:00:17.943Z,100947.83
2019-03-23T09:02:47.400Z,100943.97
2019-03-23T09:05:16.655Z,100936.19
2019-03-23T09:07:45.980Z,100946.47
2019-03-23T09:10:15.591Z,100939.67
2019-03-23T09:12:44.974Z,100937.22
2019-03-23T09:15:14.249Z,100943.27
2019-03-23T09:17:43.633Z,100929.30
2019-03-23T09:20:12.967Z,100930.27
2019-03-23T09:22:42.298Z,100927.16
2019-03-23T09:25:11.575Z,100927.05
2019-03-23T09:27:40.910Z,100919.86
2019-03-23T09:30:11.940Z,100925.10
2019-03-23T09:32:41.149Z,100921.53
2019-03-23T09:35:10.796Z,100921.22
2019-03-23T09:37:40.212Z,100918.13
2019-03-23T09:40:11.411Z,100908.81
2019-03-23T09:42:40.849Z,100911.83
2019-03-23T09:45:10.140Z,100898.70
2019-03-23T09:47:39.569Z,100905.74
2019-03-23T09:50:10.626Z,100893.31
2019-03-23T09:52:39.965Z,100892.03
2019-03-23T09:55:09.199Z,100889.66
2019-03-23T09:57:38.442Z,100891.89
2019-03-23T10:00:09.754Z,100887.59
2019-03-23T10:02:39.150Z,100888.91
2019-03-23T10:05:08.394Z,100885.45
2019-03-23T10:07:37.667Z,100877.39
2019-03-23T10:10:07.660Z,100886.34
2019-03-23T10:12:37.060Z,100870.98
2019-03-23T10:15:07.259Z,100876.98
2019-03-23T10:17:36.446Z,100873.11
2019-03-23T10:20:06.771Z,100864.34
2019-03-23T10:22:36.084Z,100863.48
2019-03-23T10:25:08.490Z,100856.98
2019-03-23T10:27:37.756Z,100852.39
2019-03-23T10:30:10.801Z,100836.53
2019-03-23T10:32:40.190Z,100841.20
2019-03-23T10:35:10.626Z,100838.27
2019-03-23T10:37:39.880Z,100839.02
2019-03-23T10:40:10.831Z,100834.22
2019-03-23T10:42:40.174Z,100830.94
2019-03-23T10:45:10.528Z,100830.41
2019-03-23T10:50:39.821Z,100823.25
2019-03-23T10:53:09.139Z,100817.27
2019-03-23T10:55:38.377Z,100821.81
2019-03-23T10:58:07.616Z,100812.56
2019-03-23T11:00:36.857Z,100806.52
2019-03-23T11:03:06.045Z,100796.20
2019-03-23T11:05:35.579Z,100804.08
2019-03-23T11:08:04.828Z,100804.53
2019-03-23T11:10:41.590Z,100807.41
2019-03-23T11:13:05.146Z,100786.09
2019-03-23T11:15:34.330Z,100788.83
2019-03-23T11:28:45.909Z,100765.92
2019-03-23T11:31:15.197Z,100773.78
2019-03-23T11:33:44.378Z,100770.53
2019-03-23T11:36:14.830Z,100764.41
2019-03-23T11:38:44.146Z,100757.72
2019-03-23T11:41:13.404Z,100745.81
2019-03-23T11:43:42.822Z,100760.28
2019-03-23T11:46:13.638Z,100748.50
2019-03-23T11:48:43.375Z,100744.97
2019-03-23T11:51:12.551Z,100743.07
2019-03-23T11:53:42.241Z,100742.73
2019-03-23T11:56:11.379Z,100740.84
2019-03-23T11:58:40.864Z,100742.42
2019-03-23T12:01:10.183Z,100730.70
2019-03-23T12:03:39.388Z,100737.94
2019-03-23T12:06:08.755Z,100735.48
2019-03-23T12:08:38.382Z,100722.58
2019-03-23T12:11:08.533Z,100711.94
2019-03-23T12:13:37.774Z,100716.38
2019-03-23T12:16:07.025Z,100714.50
2019-03-23T12:18:36.329Z,100714.11
2019-03-23T12:21:05.513Z,100712.34
2019-03-23T12:23:34.755Z,100710.93
2019-03-23T12:26:04.037Z,100700.28
2019-03-23T12:28:33.391Z,100703.30
2019-03-23T12:31:02.692Z,100693.73
2019-03-23T12:33:31.865Z,100700.97
2019-03-23T12:36:01.063Z,100683.88
2019-03-23T12:38:30.243Z,100687.71
2019-03-23T12:41:10.006Z,100691.04
2019-03-23T12:43:30.431Z,100684.27
2019-03-23T12:45:59.687Z,100666.80
2019-03-23T12:48:28.928Z,100677.09
2019-03-23T12:50:58.112Z,100674.63
2019-03-23T12:53:27.289Z,100671.26
2019-03-23T12:55:56.697Z,100664.81
2019-03-23T12:58:25.961Z,100666.28
2019-03-23T13:00:55.330Z,100662.89
2019-03-23T13:03:24.517Z,100655.53
2019-03-23T13:05:53.839Z,100645.55
2019-03-23T13:08:23.424Z,100643.13
2019-03-23T13:10:52.592Z,100626.00
2019-03-23T13:13:21.791Z,100622.52
2019-03-23T13:15:51.153Z,100614.55
2019-03-23T13:18:27.073Z,100610.62
2019-03-23T13:20:51.317Z,100608.24
2019-03-23T13:23:20.669Z,100610.84
2019-03-23T13:25:49.940Z,100611.42
2019-03-23T13:28:19.264Z,100600.68
2019-03-23T13:30:48.570Z,100600.30
2019-03-23T13:33:17.809Z,100588.28
2019-03-23T13:35:47.454Z,100586.67
2019-03-23T13:38:16.765Z,100579.26
2019-03-23T13:40:46.054Z,100574.00
2019-03-23T13:43:15.399Z,100575.29
2019-03-23T13:45:44.608Z,100570.23
2019-03-23T13:48:23.827Z,100553.95
2019-03-23T13:50:53.296Z,100553.76
2019-03-23T13:53:22.490Z,100544.53
2019-03-23T13:55:51.711Z,100543.77
2019-03-23T13:58:20.994Z,100544.52
2019-03-23T14:00:50.175Z,100534.45
2019-03-23T14:03:19.516Z,100536.48
2019-03-23T14:05:49.713Z,100529.17
2019-03-23T14:08:19.005Z,100537.29
2019-03-23T14:10:48.769Z,100528.39
2019-03-23T14:13:18.023Z,100526.42
2019-03-23T14:15:47.343Z,100522.95
2019-03-23T14:18:17.496Z,100518.02
2019-03-23T14:20:46.855Z,100527.03
2019-03-23T14:23:16.159Z,100520.91
2019-03-23T14:25:45.337Z,100516.70
2019-03-23T14:28:14.512Z,100519.43
2019-03-23T14:30:43.849Z,100511.55
2019-03-23T14:33:13.094Z,100510.78
2019-03-23T14:35:42.331Z,100509.14
2019-03-23T14:38:11.741Z,100509.97
2019-03-23T14:40:41.444Z,100502.16
2019-03-23T14:43:10.781Z,100496.71
2019-03-23T14:45:40.026Z,100502.70
2019-03-23T14:48:09.228Z,100503.37
2019-03-23T14:50:38.492Z,100492.98
2019-03-23T14:53:08.004Z,100484.33
2019-03-23T14:55:37.551Z,100478.27
2019-03-23T14:58:06.835Z,100470.84
2019-03-23T15:00:36.605Z,100467.92
2019-03-23T15:03:05.783Z,100463.63
2019-03-23T15:05:35.052Z,100463.63
2019-03-23T15:08:04.241Z,100468.88
2019-03-23T15:10:33.453Z,100458.09
2019-03-23T15:13:02.702Z,100457.97
2019-03-23T15:15:31.925Z,100463.02
2019-03-23T15:18:01.106Z,100456.67
2019-03-23T15:20:30.338Z,100454.07
2019-03-23T15:22:59.586Z,100445.62
2019-03-23T15:25:28.853Z,100447.56
2019-03-23T15:27:58.443Z,100443.38
2019-03-23T15:30:27.667Z,100444.19
2019-03-23T15:32:56.932Z,100447.95
2019-03-23T15:35:26.118Z,100443.13
2019-03-23T15:37:55.356Z,100440.77
2019-03-23T15:40:24.825Z,100436.24
2019-03-23T15:42:54.047Z,100430.44
2019-03-23T15:45:23.567Z,100431.42
2019-03-23T15:47:52.754Z,100433.48
2019-03-23T15:50:22.101Z,100435.30
2019-03-23T15:52:51.504Z,100436.14
2019-03-23T15:55:20.959Z,100440.73
2019-03-23T15:57:50.207Z,100436.53
2019-03-23T16:00:19.415Z,100436.66
2019-03-23T16:02:48.617Z,100433.27
2019-03-23T16:05:17.845Z,100429.46
2019-03-23T16:07:47.094Z,100426.45
2019-03-23T16:10:16.355Z,100422.92
2019-03-23T16:12:45.584Z,100427.84
2019-03-23T16:15:14.840Z,100413.38
2019-03-23T16:17:44.069Z,100407.19
2019-03-23T16:20:14.180Z,100413.87
2019-03-23T16:22:43.461Z,100404.72
2019-03-23T16:25:12.832Z,100403.52
2019-03-23T16:27:42.145Z,100403.13
2019-03-23T16:30:11.777Z,100395.95
2019-03-23T16:32:41.013Z,100394.18
2019-03-23T16:35:10.272Z,100398.66
2019-03-23T16:37:41.536Z,100398.91
2019-03-23T16:40:12.082Z,100390.66
2019-03-23T16:42:45.603Z,100390.63
2019-03-23T16:45:12.882Z,100387.41
2019-03-23T16:47:42.076Z,100390.63
2019-03-23T16:50:11.261Z,100383.63
2019-03-23T16:52:40.469Z,100389.74
2019-03-23T16:55:09.919Z,100382.86
2019-03-23T16:57:39.126Z,100382.95
2019-03-23T17:00:10.139Z,100381.91
2019-03-23T17:02:39.341Z,100379.22
2019-03-23T17:05:08.602Z,100378.45
2019-03-23T17:07:38.122Z,100380.29
2019-03-23T17:10:07.337Z,100378.15
2019-03-23T17:12:36.510Z,100375.90
2019-03-23T17:15:07.253Z,100368.78
2019-03-23T17:17:37.553Z,100365.56
2019-03-23T17:20:06.757Z,100361.27
2019-03-23T17:22:35.967Z,100357.59
2019-03-23T17:25:06.803Z,100356.91
2019-03-23T17:27:35.975Z,100347.09
2019-03-23T17:30:06.961Z,100351.14
2019-03-23T17:32:37.542Z,100351.25
2019-03-23T17:35:09.767Z,100349.48
2019-03-23T17:37:38.966Z,100354.23
2019-03-23T17:40:08.350Z,100355.41
2019-03-23T17:42:37.547Z,100347.73
2019-03-23T17:45:09.843Z,100345.04
2019-03-23T17:47:39.083Z,100350.92
2019-03-23T17:50:08.329Z,100347.28
2019-03-23T17:52:37.505Z,100353.20
2019-03-23T17:55:06.967Z,100350.38
2019-03-23T17:57:36.189Z,100348.84
2019-03-23T18:00:08.692Z,100349.41
2019-03-23T18:02:37.965Z,100348.90
2019-03-23T18:05:07.739Z,100346.52
2019-03-23T18:07:36.912Z,100346.70
2019-03-23T18:10:08.240Z,100345.53
2019-03-23T18:12:37.527Z,100343.83
2019-03-23T18:15:07.785Z,100346.45
2019-03-23T18:17:36.882Z,100344.77
2019-03-23T18:20:06.183Z,100334.97
2019-03-23T18:22:35.431Z,100336.06
2019-03-23T18:25:05.369Z,100334.70
2019-03-23T18:27:34.611Z,100330.78
2019-03-23T18:30:06.251Z,100337.50
2019-03-23T18:32:35.575Z,100334.25
2019-03-23T18:35:06.549Z,100336.33
2019-03-23T18:37:35.736Z,100331.03
2019-03-23T18:40:08.266Z,100347.67
2019-03-23T18:42:36.755Z,100340.66
2019-03-23T18:45:06.746Z,100344.25
2019-03-23T18:47:35.941Z,100344.61
2019-03-23T18:50:06.664Z,100338.97
2019-03-23T18:52:35.893Z,100332.29
2019-03-23T18:55:06.750Z,100327.63
2019-03-23T18:57:36.079Z,100331.76
2019-03-23T19:00:07.469Z,100326.60
2019-03-23T19:02:36.788Z,100316.67
2019-03-23T19:05:06.170Z,100319.06
2019-03-23T19:07:35.432Z,100313.05
2019-03-23T19:10:05.693Z,100314.59
2019-03-23T19:12:35.149Z,100313.22
2019-03-23T19:15:06.364Z,100311.20
2019-03-23T19:17:35.912Z,100312.19
2019-03-23T19:20:08.455Z,100322.48
2019-03-23T19:22:37.882Z,100318.72
2019-03-23T19:25:15.168Z,100314.95
2019-03-23T19:27:38.596Z,100319.95
2019-03-23T19:30:08.682Z,100318.17
2019-03-23T19:32:38.047Z,100314.82
2019-03-23T19:35:07.450Z,100317.35
2019-03-23T19:37:38.826Z,100309.98
2019-03-23T19:40:08.210Z,100304.59
2019-03-23T19:42:37.799Z,100310.77
2019-03-23T19:45:07.548Z,100304.04
2019-03-23T19:47:37.319Z,100307.05
2019-03-23T19:50:07.309Z,100295.30
2019-03-23T19:52:36.655Z,100289.62
2019-03-23T19:55:07.812Z,100288.88
2019-03-23T19:57:37.233Z,100291.09
2019-03-23T20:00:07.974Z,100292.09
2019-03-23T20:02:37.546Z,100284.99
2019-03-23T20:05:07.078Z,100289.34
2019-03-23T20:07:38.098Z,100280.18
2019-03-23T20:10:10.916Z,100273.12
2019-03-23T20:12:40.276Z,100277.70
2019-03-23T20:15:09.748Z,100275.80
2019-03-23T20:17:39.259Z,100269.41
2019-03-23T20:20:09.081Z,100266.19
2019-03-23T20:22:38.579Z,100269.04
2019-03-23T20:25:08.137Z,100274.44
2019-03-23T20:27:37.469Z,100267.13
2019-03-23T20:30:09.631Z,100269.61
2019-03-23T20:32:39.030Z,100270.84
2019-03-23T20:35:08.535Z,100263.97
2019-03-23T20:37:37.984Z,100267.67
2019-03-23T20:40:07.561Z,100260.92
2019-03-23T20:42:37.259Z,100263.74
2019-03-23T20:45:07.637Z,100266.99
2019-03-23T20:47:37.527Z,100258.27
2019-03-23T20:50:07.934Z,100256.05
2019-03-23T20:52:37.733Z,100245.77
2019-03-23T20:55:16.564Z,100240.84
2019-03-23T20:57:46.044Z,100238.64
2019-03-23T21:00:15.901Z,100236.94
2019-03-23T21:02:45.328Z,100237.16
2019-03-23T21:05:14.984Z,100232.53
2019-03-23T21:07:44.356Z,100231.25
2019-03-23T21:10:13.777Z,100231.23
2019-03-23T21:12:43.504Z,100225.34
2019-03-23T21:15:12.997Z,100219.84
2019-03-23T21:17:50.988Z,100224.29
2019-03-23T21:20:13.758Z,100219.06
2019-03-23T21:22:43.239Z,100216.67
2019-03-23T21:25:12.639Z,100219.30
2019-03-23T21:27:42.350Z,100218.66
2019-03-23T21:30:14.385Z,100216.91
2019-03-23T21:32:43.765Z,100214.36
2019-03-23T21:35:15.583Z,100212.16
2019-03-23T21:37:44.325Z,100207.59
2019-03-23T21:40:13.719Z,100204.39
2019-03-23T21:42:43.295Z,100205.41
2019-03-23T21:45:12.792Z,100210.22
2019-03-23T21:47:42.191Z,100203.50
2019-03-23T21:50:12.486Z,100201.28
2019-03-23T21:52:42.050Z,100210.16
2019-03-23T21:55:11.630Z,100202.02
2019-03-23T21:57:41.069Z,100196.64
2019-03-23T22:00:10.635Z,100196.93
2019-03-23T22:02:40.006Z,100199.54
2019-03-23T22:05:09.487Z,100199.02
2019-03-23T22:07:38.890Z,100199.13
2019-03-23T22:10:08.283Z,100198.02
2019-03-23T22:12:38.151Z,100208.50
2019-03-23T22:15:08.648Z,100209.78
2019-03-23T22:17:37.968Z,100207.63
2019-03-23T22:20:08.641Z,100206.41
2019-03-23T22:22:38.075Z,100210.44
2019-03-23T22:25:08.350Z,100213.91
2019-03-23T22:27:37.940Z,100213.00
2019-03-23T22:30:10.798Z,100209.27
2019-03-23T22:32:41.568Z,100209.58
2019-03-23T22:35:10.966Z,100213.44
2019-03-23T22:37:40.673Z,100202.22
2019-03-23T22:40:13.183Z,100203.55
2019-03-23T22:42:42.689Z,100207.34
2019-03-23T22:45:12.223Z,100201.90
2019-03-23T22:47:41.608Z,100206.09
2019-03-23T22:50:11.231Z,100204.03
2019-03-23T22:52:40.995Z,100216.38
2019-03-23T22:55:10.441Z,100220.13
2019-03-23T22:57:39.845Z,100223.52
2019-03-23T23:00:16.587Z,100213.94
2019-03-23T23:02:46.155Z,100221.49
2019-03-23T23:05:15.750Z,100232.31
2019-03-23T23:07:46.074Z,100221.83
2019-03-23T23:10:15.433Z,100219.08
2019-03-23T23:12:44.935Z,100221.11
2019-03-23T23:15:14.236Z,100221.09
2019-03-23T23:17:43.918Z,100232.15
2019-03-23T23:20:13.211Z,100241.99
2019-03-23T23:22:42.450Z,100233.95
2019-03-23T23:25:11.962Z,100248.84
2019-03-23T23:27:41.283Z,100257.06
2019-03-23T23:30:11.036Z,100259.80
2019-03-23T23:32:40.463Z,100257.40
2019-03-23T23:35:09.967Z,100258.79
2019-03-23T23:37:39.304Z,100254.33
2019-03-23T23:40:08.555Z,100257.73
2019-03-23T23:42:37.896Z,100254.31
2019-03-23T23:45:15.345Z,100269.25
2019-03-23T23:47:39.869Z,100269.95
2019-03-23T23:50:09.235Z,100277.70
2019-03-23T23:52:38.568Z,100274.61
2019-03-23T23:55:07.980Z,100273.34
2019-03-23T23:57:37.323Z,100277.09
